Sichem Hawk — 9HSE9 — position and weather

sailwx.info

Track history (hours):
 
Tides and Currents Weather Stations Pressure Air Temp Water Temp Dewpoint Dewpoint Depression Visibility Wind Speed Wind Dir Waves Ship Positions

Sichem Hawk

Last reported at 2014-Aug-17 17:33 UTC. Time now 2014-Aug-28 01:20 UTC.
Position N 29°22' W 094°48'.
Warning: this ship's position is 10 days out of date.

Length 170 m; draft 9.3 m.

Type: Ship. MMSI: 249445000.

Date/timePositionNaut miles runAvg speedWind from/ knotsBaromVisibWave heightAir tempDewpointWater temp
2014-Aug-17 17:33N 29°22' W 094°48'1212.2
2014-Aug-17 16:34N 29°33' W 094°54'1111.1
2014-Aug-17 15:33N 29°42' W 095°01'1 0.7
2014-Aug-17 13:30N 29°44' W 095°01'0 0.0
2014-Aug-17 12:24N 29°44' W 095°01'0 0.0
2014-Aug-17 10:06N 29°44' W 095°01'0 0.0
2014-Aug-17 09:06N 29°44' W 095°01'0 0.0
2014-Aug-17 06:24N 29°44' W 095°01'0 0.0
2014-Aug-17 05:27N 29°44' W 095°01'0 0.0
2014-Aug-17 04:06N 29°44' W 095°01'0 0.0
2014-Aug-17 00:06N 29°44' W 095°01'0 0.0
2014-Aug-16 23:18N 29°44' W 095°01'0 0.0
2014-Aug-16 22:12N 29°44' W 095°01'0 0.0
2014-Aug-16 21:18N 29°44' W 095°01'0 0.0
2014-Aug-16 20:24N 29°44' W 095°01'0 0.0
2014-Aug-16 17:24N 29°44' W 095°01'0 0.0
2014-Aug-16 15:30N 29°44' W 095°01'0 0.0
2014-Aug-16 14:18N 29°44' W 095°01'0 0.0
2014-Aug-16 13:24N 29°44' W 095°01'0 0.0
2014-Aug-16 12:33N 29°44' W 095°01'0 0.0
2014-Aug-16 11:30N 29°44' W 095°01'0 0.0
2014-Aug-16 10:27N 29°44' W 095°01'0 0.0
2014-Aug-16 09:21N 29°44' W 095°01'0 0.0
2014-Aug-16 08:24N 29°44' W 095°01'0 0.0
2014-Aug-16 07:27N 29°44' W 095°01'0 0.0
2014-Aug-16 06:27N 29°44' W 095°01'0 0.0
2014-Aug-16 05:18N 29°44' W 095°01'0 0.0
2014-Aug-16 04:30N 29°44' W 095°01'0 0.0
2014-Aug-16 03:12N 29°44' W 095°01'0 0.0
2014-Aug-16 01:24N 29°44' W 095°01'0 0.0
2014-Aug-16 00:33N 29°44' W 095°01'0 0.0
2014-Aug-15 23:30N 29°44' W 095°01'0 0.0
2014-Aug-15 22:30N 29°44' W 095°01'0 0.0
2014-Aug-15 21:30N 29°44' W 095°01'0 0.0
2014-Aug-15 20:21N 29°44' W 095°01'0 0.0
2014-Aug-15 19:06N 29°44' W 095°01'0 0.0
2014-Aug-15 18:12N 29°44' W 095°01'0 0.1
2014-Aug-15 17:33N 29°43' W 095°01'9 9.3
2014-Aug-15 16:33N 29°35' W 094°56'1313.0
2014-Aug-15 15:33N 29°24' W 094°49'  
2014-Aug-12 04:33N 29°25' W 094°50'1312.9
2014-Aug-12 03:34N 29°36' W 094°57'8 8.0
2014-Aug-12 02:34N 29°44' W 095°01'0 0.0
2014-Aug-12 01:32N 29°44' W 095°01'0 0.0
2014-Aug-11 23:20N 29°44' W 095°01'0 0.0
2014-Aug-11 22:32N 29°44' W 095°01'0 0.0
2014-Aug-11 21:17N 29°44' W 095°01'0 0.0
2014-Aug-11 19:20N 29°44' W 095°01'0 0.0
2014-Aug-11 18:32N 29°44' W 095°01'0 0.0
2014-Aug-11 17:23N 29°44' W 095°01'0 0.0
2014-Aug-11 16:32N 29°44' W 095°01'0 0.0
2014-Aug-11 15:17N 29°44' W 095°01'0 0.0
2014-Aug-11 06:29N 29°44' W 095°01'0 0.0
2014-Aug-11 05:05N 29°44' W 095°01'0 0.0
2014-Aug-11 03:17N 29°44' W 095°01'0 0.0
2014-Aug-11 02:26N 29°44' W 095°01'0 0.0
2014-Aug-11 01:23N 29°44' W 095°01'0 0.0
2014-Aug-11 00:29N 29°44' W 095°01'0 0.0
2014-Aug-10 23:17N 29°44' W 095°01'0 0.0
2014-Aug-10 22:32N 29°44' W 095°01'0 0.0
2014-Aug-10 21:29N 29°44' W 095°01'0 0.0
2014-Aug-10 20:26N 29°44' W 095°01'0 0.0
2014-Aug-10 19:32N 29°44' W 095°01'0 0.0
2014-Aug-10 18:23N 29°44' W 095°01'0 0.0
2014-Aug-10 17:29N 29°44' W 095°01'0 0.0
2014-Aug-10 16:23N 29°44' W 095°01'0 0.0
2014-Aug-10 13:26N 29°44' W 095°01'0 0.0
2014-Aug-10 12:17N 29°44' W 095°01'0 0.0
2014-Aug-10 11:29N 29°44' W 095°01'0 0.0
2014-Aug-10 09:32N 29°44' W 095°01'6 6.4
2014-Aug-10 08:33N 29°38' W 094°58'1312.6
2014-Aug-10 07:33N 29°27' W 094°51'1211.8
2014-Aug-10 06:32N 29°20' W 094°40'  
Track history (hours):
 
Tides and Currents Weather Stations Pressure Air Temp Water Temp Dewpoint Dewpoint Depression Visibility Wind Speed Wind Dir Waves Ship Positions

Sichem Hawk

Last reported at 2014-Aug-17 17:33 UTC. Time now 2014-Aug-28 01:20 UTC.
Position N 29°22' W 094°48'.
Warning: this ship's position is 10 days out of date.

Length 170 m; draft 9.3 m.

Type: Ship. MMSI: 249445000.

Date/timePositionNaut miles runAvg speedWind from/ knotsBaromVisibWave heightAir tempDewpointWater temp
2014-Aug-17 17:33N 29°22' W 094°48'1212.2
2014-Aug-17 16:34N 29°33' W 094°54'1111.1
2014-Aug-17 15:33N 29°42' W 095°01'1 0.7
2014-Aug-17 13:30N 29°44' W 095°01'0 0.0
2014-Aug-17 12:24N 29°44' W 095°01'0 0.0
2014-Aug-17 10:06N 29°44' W 095°01'0 0.0
2014-Aug-17 09:06N 29°44' W 095°01'0 0.0
2014-Aug-17 06:24N 29°44' W 095°01'0 0.0
2014-Aug-17 05:27N 29°44' W 095°01'0 0.0
2014-Aug-17 04:06N 29°44' W 095°01'0 0.0
2014-Aug-17 00:06N 29°44' W 095°01'0 0.0
2014-Aug-16 23:18N 29°44' W 095°01'0 0.0
2014-Aug-16 22:12N 29°44' W 095°01'0 0.0
2014-Aug-16 21:18N 29°44' W 095°01'0 0.0
2014-Aug-16 20:24N 29°44' W 095°01'0 0.0
2014-Aug-16 17:24N 29°44' W 095°01'0 0.0
2014-Aug-16 15:30N 29°44' W 095°01'0 0.0
2014-Aug-16 14:18N 29°44' W 095°01'0 0.0
2014-Aug-16 13:24N 29°44' W 095°01'0 0.0
2014-Aug-16 12:33N 29°44' W 095°01'0 0.0
2014-Aug-16 11:30N 29°44' W 095°01'0 0.0
2014-Aug-16 10:27N 29°44' W 095°01'0 0.0
2014-Aug-16 09:21N 29°44' W 095°01'0 0.0
2014-Aug-16 08:24N 29°44' W 095°01'0 0.0
2014-Aug-16 07:27N 29°44' W 095°01'0 0.0
2014-Aug-16 06:27N 29°44' W 095°01'0 0.0
2014-Aug-16 05:18N 29°44' W 095°01'0 0.0
2014-Aug-16 04:30N 29°44' W 095°01'0 0.0
2014-Aug-16 03:12N 29°44' W 095°01'0 0.0
2014-Aug-16 01:24N 29°44' W 095°01'0 0.0
2014-Aug-16 00:33N 29°44' W 095°01'0 0.0
2014-Aug-15 23:30N 29°44' W 095°01'0 0.0
2014-Aug-15 22:30N 29°44' W 095°01'0 0.0
2014-Aug-15 21:30N 29°44' W 095°01'0 0.0
2014-Aug-15 20:21N 29°44' W 095°01'0 0.0
2014-Aug-15 19:06N 29°44' W 095°01'0 0.0
2014-Aug-15 18:12N 29°44' W 095°01'0 0.1
2014-Aug-15 17:33N 29°43' W 095°01'9 9.3
2014-Aug-15 16:33N 29°35' W 094°56'1313.0
2014-Aug-15 15:33N 29°24' W 094°49'  
2014-Aug-12 04:33N 29°25' W 094°50'1312.9
2014-Aug-12 03:34N 29°36' W 094°57'8 8.0
2014-Aug-12 02:34N 29°44' W 095°01'0 0.0
2014-Aug-12 01:32N 29°44' W 095°01'0 0.0
2014-Aug-11 23:20N 29°44' W 095°01'0 0.0
2014-Aug-11 22:32N 29°44' W 095°01'0 0.0
2014-Aug-11 21:17N 29°44' W 095°01'0 0.0
2014-Aug-11 19:20N 29°44' W 095°01'0 0.0
2014-Aug-11 18:32N 29°44' W 095°01'0 0.0
2014-Aug-11 17:23N 29°44' W 095°01'0 0.0
2014-Aug-11 16:32N 29°44' W 095°01'0 0.0
2014-Aug-11 15:17N 29°44' W 095°01'0 0.0
2014-Aug-11 06:29N 29°44' W 095°01'0 0.0
2014-Aug-11 05:05N 29°44' W 095°01'0 0.0
2014-Aug-11 03:17N 29°44' W 095°01'0 0.0
2014-Aug-11 02:26N 29°44' W 095°01'0 0.0
2014-Aug-11 01:23N 29°44' W 095°01'0 0.0
2014-Aug-11 00:29N 29°44' W 095°01'0 0.0
2014-Aug-10 23:17N 29°44' W 095°01'0 0.0
2014-Aug-10 22:32N 29°44' W 095°01'0 0.0
2014-Aug-10 21:29N 29°44' W 095°01'0 0.0
2014-Aug-10 20:26N 29°44' W 095°01'0 0.0
2014-Aug-10 19:32N 29°44' W 095°01'0 0.0
2014-Aug-10 18:23N 29°44' W 095°01'0 0.0
2014-Aug-10 17:29N 29°44' W 095°01'0 0.0
2014-Aug-10 16:23N 29°44' W 095°01'0 0.0
2014-Aug-10 13:26N 29°44' W 095°01'0 0.0
2014-Aug-10 12:17N 29°44' W 095°01'0 0.0
2014-Aug-10 11:29N 29°44' W 095°01'0 0.0
2014-Aug-10 09:32N 29°44' W 095°01'6 6.4
2014-Aug-10 08:33N 29°38' W 094°58'1312.6
2014-Aug-10 07:33N 29°27' W 094°51'1211.8
2014-Aug-10 06:32N 29°20' W 094°40'  

Dump ship's entire track history